Terminal Aerodrome Forecast
Issued by NWS

Home | Current Version | Previous Version | Text Only | Print | Product List | Glossary On
Versions: 1 2 3 4 5 6 7 8 9 10 11 12 13 14 15
000
FTUS46 KLOX 261141
TAFLGB
TAF
KLGB 261141Z 2612/2712 VRB03KT 6SM -RA BR SCT020 OVC035
     FM261700 15007KT P6SM VCSH SCT025 OVC040
     FM262100 20007KT P6SM BKN040 BKN080
     FM270400 VRB03KT P6SM BKN050=

USA.gov is the U.S. government's official web portal to all federal, state and local government web resources and services.